createdAt,value
2018-12-19T00:08:25.262Z,3.14
2018-12-19T00:19:24.558Z,3.14
2018-12-19T00:30:28.820Z,3.13
2018-12-19T00:41:32.547Z,3.13
2018-12-19T00:52:33.189Z,3.13
2018-12-19T01:03:33.505Z,3.13
2018-12-19T01:14:36.743Z,3.12
2018-12-19T01:25:37.171Z,3.12
2018-12-19T01:36:37.992Z,3.12
2018-12-19T01:47:37.768Z,3.12
2018-12-19T01:58:37.763Z,3.12
2018-12-19T02:09:40.299Z,3.11
2018-12-19T02:20:40.228Z,3.11
2018-12-19T02:31:40.910Z,3.11
2018-12-19T02:42:45.265Z,3.10
2018-12-19T02:53:49.499Z,3.10
2018-12-19T03:04:49.562Z,3.10
2018-12-19T03:15:50.731Z,3.10
2018-12-19T03:26:55.450Z,3.10
2018-12-19T03:38:00.566Z,3.09
2018-12-19T03:49:00.696Z,3.09
2018-12-19T04:00:02.017Z,3.09
2018-12-19T04:11:01.494Z,3.09
2018-12-19T04:22:00.597Z,3.08
2018-12-19T04:33:02.686Z,3.08
2018-12-19T04:44:03.376Z,3.07
2018-12-19T04:55:04.216Z,3.07
2018-12-19T05:06:06.911Z,3.07
2018-12-19T05:17:09.569Z,3.07
2018-12-19T05:28:11.140Z,3.06
2018-12-19T05:39:15.906Z,3.06
2018-12-19T05:50:17.007Z,3.06
2018-12-19T06:01:22.209Z,3.06
2018-12-19T06:12:22.081Z,3.06
2018-12-19T06:23:27.400Z,3.06
2018-12-19T06:34:32.259Z,3.06
2018-12-19T06:45:37.863Z,3.06
2018-12-19T06:56:41.810Z,3.06
2018-12-19T07:07:42.835Z,3.06
2018-12-19T07:18:44.281Z,3.06
2018-12-19T07:29:49.361Z,3.07
2018-12-19T07:40:49.441Z,3.09
2018-12-19T07:51:54.834Z,3.12
2018-12-19T08:02:56.341Z,3.13
2018-12-19T08:14:00.599Z,3.14
2018-12-19T08:25:02.645Z,3.15
2018-12-19T08:36:01.670Z,3.17
2018-12-19T08:47:02.686Z,3.21
2018-12-19T08:58:02.103Z,3.22
2018-12-19T09:09:01.666Z,3.23
2018-12-19T09:19:59.426Z,3.26
2018-12-19T09:31:00.395Z,3.29
2018-12-19T09:41:59.298Z,3.30
2018-12-19T09:52:59.428Z,3.32
2018-12-19T10:04:02.684Z,3.33
2018-12-19T10:15:06.758Z,3.36
2018-12-19T10:26:09.336Z,3.38
2018-12-19T10:37:08.776Z,3.40
2018-12-19T10:48:12.416Z,3.34
2018-12-19T10:59:15.685Z,3.34
2018-12-19T11:10:16.876Z,3.35
2018-12-19T11:21:19.237Z,3.34
2018-12-19T11:32:18.515Z,3.34
2018-12-19T11:43:19.254Z,3.34
2018-12-19T11:54:16.192Z,3.40
2018-12-19T12:05:19.062Z,3.39
2018-12-19T12:16:20.780Z,3.36
2018-12-19T12:27:19.321Z,3.34
2018-12-19T12:38:19.799Z,3.40
2018-12-19T12:49:17.833Z,3.36
2018-12-19T13:00:16.197Z,3.36
2018-12-19T13:11:13.252Z,3.39
2018-12-19T13:22:14.676Z,3.38
2018-12-19T13:33:13.565Z,3.37
2018-12-19T13:44:16.275Z,3.36
2018-12-19T13:55:18.980Z,3.34
2018-12-19T14:06:22.435Z,3.34
2018-12-19T14:17:20.527Z,3.33
2018-12-19T14:28:15.904Z,3.32
2018-12-19T14:39:17.584Z,3.31
2018-12-19T14:50:21.674Z,3.30
2018-12-19T15:01:20.727Z,3.30
2018-12-19T15:12:25.533Z,3.29
2018-12-19T15:23:24.602Z,3.29
2018-12-19T15:34:27.580Z,3.28
2018-12-19T15:45:31.249Z,3.28
2018-12-19T15:56:12.861Z,3.27
2018-12-19T16:07:15.701Z,3.26
2018-12-19T16:18:17.199Z,3.26
2018-12-19T16:29:16.462Z,3.26
2018-12-19T16:40:15.161Z,3.25
2018-12-19T16:51:16.368Z,3.25
2018-12-19T17:02:20.283Z,3.25
2018-12-19T17:13:22.091Z,3.25
2018-12-19T17:24:23.032Z,3.25
2018-12-19T17:35:24.427Z,3.25
2018-12-19T17:46:27.260Z,3.24
2018-12-19T17:57:31.679Z,3.23
2018-12-19T18:08:29.888Z,3.23
2018-12-19T18:19:30.834Z,3.23
2018-12-19T18:30:33.447Z,3.22
2018-12-19T18:41:35.988Z,3.22
2018-12-19T18:52:35.350Z,3.22
2018-12-19T19:03:36.486Z,3.22
2018-12-19T19:14:38.190Z,3.21
2018-12-19T19:25:37.177Z,3.21
2018-12-19T19:36:40.745Z,3.21
2018-12-19T19:47:43.503Z,3.21
2018-12-19T19:58:47.989Z,3.20
2018-12-19T20:09:47.670Z,3.20
2018-12-19T20:20:52.431Z,3.19
2018-12-19T20:31:50.360Z,3.19
2018-12-19T20:42:52.600Z,3.19
2018-12-19T20:53:52.805Z,3.18
2018-12-19T21:04:54.504Z,3.18
2018-12-19T21:15:55.136Z,3.18
2018-12-19T21:26:54.302Z,3.18
2018-12-19T21:37:58.690Z,3.17
2018-12-19T21:49:02.330Z,3.17
2018-12-19T22:00:06.809Z,3.17
2018-12-19T22:11:06.393Z,3.16
2018-12-19T22:22:10.979Z,3.16
2018-12-19T22:33:15.084Z,3.15
2018-12-19T22:44:14.944Z,3.15
2018-12-19T22:55:17.774Z,3.15
2018-12-19T23:06:21.543Z,3.15
2018-12-19T23:17:24.519Z,3.15
2018-12-19T23:28:25.008Z,3.14
2018-12-19T23:39:28.461Z,3.14
2018-12-19T23:50:33.328Z,3.14
